logo
Search for airport 
image banner adimage banner adimage banner ad
image banner ad

YTRA - Tropicana

Located in Tropicana Gold Mine, Australia

ICAO - , IATA -

Data provided by Airmate  

General information

Coordinates: S29°11'12" E124°33'1"
Elevation is 1104 feet MSL.
 
View others Airports in Western Australia

Operational data

Special qualification required
Current time UTC:
Current local time:
Weather at : - ( 0 km )
METAR: ZMUB 152000Z 00000MPS 9999 FEW033 15/10 Q1011 NOSIG RMK QFE651.5 68 NT
View NOTAMs / SUP AIP / TFR affecting this airport [VIEW]
Communications frequencies: [VIEW]

Runways:

RWY identifierQFULength (ft)Width (ft)SurfaceLDA (ft)
0989°689098UNK
27269°689098UNK

Airport contact information

Address: Tropicana Gold Mine Australia

Satellite view of YTRA